^^
Meteo Knjazevac Station Historical Data
Daily Summary for June 27, 2022 Units:  Metric    English   Both
Daily Weekly Monthly Yearly Custom
  High: Low: Average:
Temperature: 32 °C 14.2 °C 23.4 °C
Dew Point: 22.2 °C 14.1 °C 18.3 °C
Humidity: 99% 47% 76%
Wind Speed: 11.3km/h 0km/h 2.9km/h
Wind Gust: 22.5km/h - -
Wind- - SW
Pressure: 1020.5 hPa 1018.2 hPa -
Precipitation: 0.25 mm    
Historical Graphs
 
 
Tabular Data for June 27, 2022
Time Temperature Dew Point Pressure Wind Wind Speed Wind Gust Humidity Rainfall Rate (Hourly) solar Conditions
00:00 17.6 °C 16.8 °C 1019.5 hPa WSW 4.8 km/h 6.4 km/h 95% 0 mm 0 W/m2
00:10 17.3 °C 16.7 °C 1019.5 hPa West 3.2 km/h 6.4 km/h 96% 0 mm 0 W/m2
00:20 17.2 °C 16.6 °C 1019.5 hPa West 1.6 km/h 6.4 km/h 96% 0 mm 0 W/m2
00:30 17.1 °C 16.4 °C 1019.5 hPa NNW 1.6 km/h 3.2 km/h 96% 0 mm 0 W/m2
00:40 17.1 °C 16.4 °C 1019.5 hPa Calm   3.2 km/h 96% 0 mm 0 W/m2
00:50 16.9 °C 16.3 °C 1019.5 hPa West 1.6 km/h 4.8 km/h 96% 0 mm 0 W/m2
01:00 16.8 °C 16.5 °C 1019.9 hPa Calm     98% 0 mm 0 W/m2
01:10 16.8 °C 16.5 °C 1019.9 hPa Calm   1.6 km/h 98% 0 mm 0 W/m2
01:20 16.7 °C 16.4 °C 1019.9 hPa NNW 1.6 km/h 3.2 km/h 98% 0 mm 0 W/m2
01:30 16.6 °C 16.3 °C 1019.9 hPa WSW 1.6 km/h 3.2 km/h 98% 0 mm 0 W/m2
01:40 16.4 °C 16.1 °C 1019.9 hPa WNW 1.6 km/h 4.8 km/h 98% 0 mm 0 W/m2
01:50 16.4 °C 16.1 °C 1019.9 hPa West 1.6 km/h 4.8 km/h 98% 0 mm 0 W/m2
02:10 16.1 °C 15.8 °C 1019.9 hPa Calm   3.2 km/h 98% 0 mm 0 W/m2
02:20 16 °C 15.7 °C 1019.9 hPa West 3.2 km/h 4.8 km/h 98% 0 mm 0 W/m2
02:30 15.8 °C 15.5 °C 1019.9 hPa Calm   3.2 km/h 98% 0 mm 0 W/m2
02:40 15.7 °C 15.4 °C 1019.9 hPa WSW 1.6 km/h 3.2 km/h 98% 0 mm 0 W/m2
03:00 15.5 °C 15.3 °C 1019.9 hPa West 3.2 km/h 4.8 km/h 99% 0 mm 0 W/m2
03:10 15.4 °C 15.2 °C 1019.9 hPa Calm   4.8 km/h 99% 0 mm 0 W/m2
03:20 15.4 °C 15.2 °C 1019.9 hPa NW 1.6 km/h 3.2 km/h 99% 0 mm 0 W/m2
03:30 15.3 °C 15.2 °C 1019.9 hPa Calm   3.2 km/h 99% 0 mm 0 W/m2
03:40 15.2 °C 15.1 °C 1019.9 hPa Calm   3.2 km/h 99% 0 mm 0 W/m2
04:00 15 °C 14.8 °C 1019.9 hPa WSW 3.2 km/h 4.8 km/h 99% 0 mm 0 W/m2
04:10 14.8 °C 14.7 °C 1019.9 hPa Calm   3.2 km/h 99% 0 mm 0 W/m2
04:20 14.8 °C 14.7 °C 1019.9 hPa WSW 1.6 km/h 3.2 km/h 99% 0 mm 0 W/m2
04:30 14.7 °C 14.6 °C 1019.9 hPa WNW 1.6 km/h 4.8 km/h 99% 0 mm 0 W/m2
04:40 14.7 °C 14.6 °C 1019.9 hPa Calm   3.2 km/h 99% 0 mm 0 W/m2
04:50 14.7 °C 14.6 °C 1019.9 hPa Calm   1.6 km/h 99% 0 mm 0 W/m2
05:00 14.5 °C 14.3 °C 1019.9 hPa Calm   1.6 km/h 99% 0 mm 7 W/m2
05:10 14.4 °C 14.2 °C 1019.9 hPa Calm   3.2 km/h 99% 0.25 mm 12 W/m2
05:20 14.3 °C 14.2 °C 1019.9 hPa WSW 3.2 km/h 4.8 km/h 99% 0 mm 21 W/m2
05:30 14.2 °C 14.1 °C 1019.9 hPa West 3.2 km/h 6.4 km/h 99% 0 mm 29 W/m2
05:40 14.2 °C 14.1 °C 1020.2 hPa West 1.6 km/h 6.4 km/h 99% 0 mm 38 W/m2
05:50 14.3 °C 14.2 °C 1020.2 hPa Calm   3.2 km/h 99% 0 mm 47 W/m2
06:10 14.5 °C 14.3 °C 1020.2 hPa Calm     99% 0 mm 107 W/m2
06:20 14.6 °C 14.4 °C 1020.2 hPa Calm   1.6 km/h 99% 0 mm 125 W/m2
06:30 14.7 °C 14.6 °C 1020.2 hPa Calm   3.2 km/h 99% 0 mm 144 W/m2
06:40 14.9 °C 14.7 °C 1020.5 hPa WNW 1.6 km/h 4.8 km/h 99% 0 mm 172 W/m2
06:50 15.1 °C 14.9 °C 1020.5 hPa Calm   3.2 km/h 99% 0 mm 208 W/m2
07:00 15.3 °C 15.2 °C 1020.5 hPa WNW 1.6 km/h 3.2 km/h 99% 0 mm 234 W/m2
07:10 15.7 °C 15.6 °C 1020.2 hPa Calm   3.2 km/h 99% 0 mm 262 W/m2
07:20 15.9 °C 15.7 °C 1020.5 hPa WNW 1.6 km/h 4.8 km/h 99% 0 mm 300 W/m2
07:40 16.6 °C 16.4 °C 1020.5 hPa NW 1.6 km/h 6.4 km/h 99% 0 mm 367 W/m2
07:50 16.9 °C 16.7 °C 1020.5 hPa NW 1.6 km/h 6.4 km/h 99% 0 mm 399 W/m2
08:00 17.2 °C 17.1 °C 1020.5 hPa Calm   4.8 km/h 99% 0 mm 436 W/m2
08:10 17.7 °C 17.5 °C 1020.5 hPa WSW 1.6 km/h 4.8 km/h 99% 0 mm 462 W/m2
08:20 18.6 °C 18.4 °C 1020.5 hPa WSW 1.6 km/h 4.8 km/h 99% 0 mm 505 W/m2
08:30 19.5 °C 18.8 °C 1020.5 hPa WNW 1.6 km/h 4.8 km/h 96% 0 mm 544 W/m2
08:40 20.3 °C 19.2 °C 1020.5 hPa Calm   6.4 km/h 93% 0 mm 574 W/m2
08:50 21.1 °C 19.2 °C 1020.5 hPa SE 1.6 km/h 8 km/h 89% 0 mm 608 W/m2
09:00 21.8 °C 19.5 °C 1020.5 hPa Calm   6.4 km/h 87% 0 mm 633 W/m2
09:10 22.5 °C 19.7 °C 1020.5 hPa WNW 1.6 km/h 4.8 km/h 84% 0 mm 663 W/m2
09:20 23.1 °C 20.1 °C 1020.5 hPa ENE 1.6 km/h 9.7 km/h 83% 0 mm 695 W/m2
09:30 23.7 °C 20 °C 1020.5 hPa NNE 1.6 km/h 9.7 km/h 80% 0 mm 722 W/m2
09:50 24.6 °C 20.3 °C 1020.5 hPa NE 3.2 km/h 11.3 km/h 77% 0 mm 776 W/m2
10:00 25.1 °C 20.6 °C 1020.5 hPa North 1.6 km/h 9.7 km/h 76% 0 mm 801 W/m2
10:10 25.4 °C 20.9 °C 1020.5 hPa NE 4.8 km/h 9.7 km/h 76% 0 mm 824 W/m2
10:20 25.8 °C 20.9 °C 1020.5 hPa NNE 3.2 km/h 8 km/h 74% 0 mm 849 W/m2
10:30 26.2 °C 21 °C 1020.5 hPa NE 3.2 km/h 12.9 km/h 73% 0 mm 870 W/m2
10:40 26.6 °C 20.4 °C 1020.5 hPa NE 4.8 km/h 12.9 km/h 69% 0 mm 765 W/m2
10:50 26.9 °C 20.5 °C 1020.2 hPa North 4.8 km/h 9.7 km/h 68% 0 mm 896 W/m2
11:00 27.3 °C 19.9 °C 1020.2 hPa North 4.8 km/h 11.3 km/h 64% 0 mm 916 W/m2
11:10 27.6 °C 20.2 °C 1020.2 hPa North 3.2 km/h 11.3 km/h 64% 0 mm 929 W/m2
11:20 27.8 °C 20.4 °C 1020.2 hPa NNW 4.8 km/h 9.7 km/h 64% 0 mm 368 W/m2
11:30 28.1 °C 20.4 °C 1020.2 hPa NNE 3.2 km/h 14.5 km/h 63% 0 mm 950 W/m2
11:50 28.6 °C 20.9 °C 1019.9 hPa NNE 4.8 km/h 11.3 km/h 63% 0 mm 965 W/m2
12:00 28.8 °C 20.3 °C 1019.9 hPa NNE 3.2 km/h 12.9 km/h 60% 0 mm 401 W/m2
12:10 29.2 °C 21.4 °C 1019.9 hPa NNE 8 km/h 11.3 km/h 63% 0 mm 383 W/m2
12:20 29.5 °C 21.4 °C 1019.5 hPa North 3.2 km/h 19.3 km/h 62% 0 mm 886 W/m2
12:30 29.7 °C 21.7 °C 1019.5 hPa NNE 4.8 km/h 14.5 km/h 62% 0 mm 957 W/m2
12:40 29.9 °C 22.2 °C 1019.2 hPa NNE 4.8 km/h 11.3 km/h 63% 0 mm 440 W/m2
12:50 30.2 °C 21.6 °C 1019.2 hPa NNE 11.3 km/h 22.5 km/h 60% 0 mm 690 W/m2
13:00 30.4 °C 21.5 °C 1019.2 hPa North 4.8 km/h 11.3 km/h 59% 0 mm 971 W/m2
13:10 30.7 °C 21.4 °C 1019.2 hPa NNE 8 km/h 12.9 km/h 58% 0 mm 966 W/m2
13:20 30.3 °C 20.9 °C 1019.2 hPa NNW 4.8 km/h 11.3 km/h 57% 0 mm 960 W/m2
13:30 30.6 °C 20.6 °C 1019.2 hPa North 3.2 km/h 16.1 km/h 55% 0 mm 220 W/m2
13:40 30.6 °C 20.2 °C 1019.2 hPa North 3.2 km/h 12.9 km/h 54% 0 mm 942 W/m2
13:50 30.8 °C 19.5 °C 1018.8 hPa NNE 4.8 km/h 12.9 km/h 51% 0 mm 931 W/m2
14:00 31 °C 19.3 °C 1018.8 hPa North 3.2 km/h 9.7 km/h 50% 0 mm 919 W/m2
14:10 31.1 °C 18.8 °C 1018.8 hPa North 11.3 km/h 16.1 km/h 48% 0 mm 905 W/m2
14:20 31.3 °C 19 °C 1018.8 hPa North 4.8 km/h 11.3 km/h 48% 0 mm 890 W/m2
14:30 31.4 °C 19.4 °C 1018.8 hPa North 4.8 km/h 12.9 km/h 49% 0 mm 874 W/m2
14:40 31.6 °C 19.6 °C 1018.8 hPa North 3.2 km/h 12.9 km/h 49% 0 mm 856 W/m2
14:50 31.8 °C 20.1 °C 1018.8 hPa North 8 km/h 19.3 km/h 50% 0 mm 837 W/m2
15:00 31.9 °C 19.8 °C 1018.5 hPa NNE 1.6 km/h 14.5 km/h 49% 0 mm 817 W/m2
15:10 31.9 °C 19.2 °C 1018.5 hPa NNE 9.7 km/h 16.1 km/h 47% 0 mm 796 W/m2
15:20 31.7 °C 19.7 °C 1018.5 hPa NNE 8 km/h 19.3 km/h 49% 0 mm 774 W/m2
15:30 31.9 °C 19.8 °C 1018.5 hPa NNE 8 km/h 19.3 km/h 49% 0 mm 751 W/m2
15:50 31.9 °C 19.2 °C 1018.5 hPa North 8 km/h 14.5 km/h 47% 0 mm 701 W/m2
16:00 31.9 °C 20.2 °C 1018.5 hPa North 3.2 km/h 14.5 km/h 50% 0 mm 675 W/m2
16:10 32 °C 20.3 °C 1018.5 hPa Calm   12.9 km/h 50% 0 mm 175 W/m2
16:20 31.3 °C 19.9 °C 1018.5 hPa North 4.8 km/h 14.5 km/h 51% 0 mm 550 W/m2
16:30 31.4 °C 19.7 °C 1018.5 hPa North 3.2 km/h 11.3 km/h 50% 0 mm 577 W/m2
16:40 31.4 °C 19.7 °C 1018.5 hPa NW 8 km/h 12.9 km/h 50% 0 mm 556 W/m2
16:50 31.4 °C 20.1 °C 1018.5 hPa NW 3.2 km/h 11.3 km/h 51% 0 mm 504 W/m2
17:00 31.4 °C 20.3 °C 1018.2 hPa NNW 4.8 km/h 9.7 km/h 52% 0 mm 479 W/m2
17:10 31.6 °C 19.9 °C 1018.2 hPa North 4.8 km/h 11.3 km/h 50% 0 mm 452 W/m2
17:20 31.6 °C 19.9 °C 1018.2 hPa North 3.2 km/h 9.7 km/h 50% 0 mm 421 W/m2
17:40 31.5 °C 19.8 °C 1018.2 hPa NNW 4.8 km/h 11.3 km/h 50% 0 mm 348 W/m2
17:50 31.4 °C 20.3 °C 1018.2 hPa NNW 8 km/h 11.3 km/h 52% 0 mm 317 W/m2
18:00 31.3 °C 20.6 °C 1018.2 hPa North 3.2 km/h 12.9 km/h 53% 0 mm 287 W/m2
18:10 31.2 °C 20.5 °C 1018.2 hPa North 1.6 km/h 12.9 km/h 53% 0 mm 251 W/m2
18:20 31.1 °C 20.4 °C 1018.2 hPa North 3.2 km/h 9.7 km/h 53% 0 mm 220 W/m2
18:30 31 °C 20.3 °C 1018.2 hPa NNW 3.2 km/h 8 km/h 53% 0 mm 189 W/m2
18:40 30.9 °C 20.5 °C 1018.2 hPa North 3.2 km/h 8 km/h 54% 0 mm 160 W/m2
18:50 30.6 °C 20.3 °C 1018.2 hPa North 3.2 km/h 9.7 km/h 54% 0 mm 134 W/m2
19:00 30.4 °C 20.1 °C 1018.2 hPa North 3.2 km/h 8 km/h 54% 0 mm 110 W/m2
19:10 30.2 °C 20.2 °C 1018.2 hPa North 3.2 km/h 8 km/h 55% 0 mm 88 W/m2
19:20 29.9 °C 20.4 °C 1018.2 hPa NNW 1.6 km/h 6.4 km/h 57% 0 mm 68 W/m2
19:40 29.2 °C 20.4 °C 1018.2 hPa NNW 1.6 km/h 8 km/h 59% 0 mm 35 W/m2
19:50 28.8 °C 20 °C 1018.2 hPa NNW 3.2 km/h 4.8 km/h 59% 0 mm 24 W/m2
20:00 28.2 °C 19.7 °C 1018.2 hPa NNW 3.2 km/h 4.8 km/h 60% 0 mm 14 W/m2
20:20 27 °C 19.8 °C 1018.5 hPa South 3.2 km/h 8 km/h 65% 0 mm 0 W/m2
20:30 26.3 °C 19.7 °C 1018.5 hPa South 1.6 km/h 6.4 km/h 67% 0 mm 0 W/m2
20:40 25.8 °C 19.7 °C 1018.8 hPa SSW 1.6 km/h 4.8 km/h 69% 0 mm 0 W/m2
20:50 25.2 °C 19.3 °C 1018.8 hPa SW 3.2 km/h 4.8 km/h 70% 0 mm 0 W/m2
21:00 24.8 °C 19.8 °C 1019.2 hPa WSW 3.2 km/h 8 km/h 74% 0 mm 0 W/m2
21:10 24.4 °C 20.1 °C 1019.2 hPa WSW 1.6 km/h 4.8 km/h 77% 0 mm 0 W/m2
21:20 24 °C 19.7 °C 1019.2 hPa SW 3.2 km/h 6.4 km/h 77% 0 mm 0 W/m2
21:30 23.6 °C 19.6 °C 1019.2 hPa SW 3.2 km/h 6.4 km/h 78% 0 mm 0 W/m2
21:50 22.9 °C 18.7 °C 1019.5 hPa South 1.6 km/h 6.4 km/h 77% 0 mm 0 W/m2
22:10 22.1 °C 19.1 °C 1019.5 hPa WSW 4.8 km/h 6.4 km/h 83% 0 mm 0 W/m2
22:40 21.2 °C 18.4 °C 1019.5 hPa WNW 1.6 km/h 3.2 km/h 84% 0 mm 0 W/m2
22:50 21 °C 18.4 °C 1019.5 hPa West 3.2 km/h 6.4 km/h 85% 0 mm 0 W/m2
23:00 20.7 °C 18.3 °C 1019.5 hPa West 1.6 km/h 6.4 km/h 86% 0 mm 0 W/m2
23:10 20.5 °C 18.1 °C 1019.5 hPa Calm   4.8 km/h 86% 0 mm 0 W/m2
23:20 20.3 °C 17.7 °C 1019.5 hPa SE 1.6 km/h 4.8 km/h 85% 0 mm 0 W/m2
23:30 20 °C 17.4 °C 1019.5 hPa West 1.6 km/h 3.2 km/h 85% 0 mm 0 W/m2
23:40 19.7 °C 17.1 °C 1019.5 hPa Calm   3.2 km/h 85% 0 mm 0 W/m2
23:50 19.5 °C 17.4 °C 1019.5 hPa NW 1.6 km/h 3.2 km/h 88% 0 mm 0 W/m2
Knjazevac, Serbia
Compliments of Weather Underground - 2 mb